Terminal Aerodrome Forecast
Issued by NWS

Home | Current Version | Previous Version | Text Only | Print | Product List | Glossary On
Versions: 1 2 3 4 5 6 7 8 9 10 11 12 13 14 15 16 17
000
FTUS41 KPHI 272055 AAB
TAFMIV
TAF AMD
KMIV 272055Z 2721/2818 07006KT P6SM SHRA VCTS OVC009CB
      TEMPO 2722/2724 5SM -TSRA OVC008CB
     FM280000 06008KT P6SM OVC008
      TEMPO 2800/2802 5SM -TSRA OVC008CB
     FM280200 08008KT P6SM VCTS OVC008CB
     FM280300 08007KT P6SM OVC006=

USA.gov is the U.S. government's official web portal to all federal, state and local government web resources and services.